Time;durP1;ratioP1;P1;durP2;ratioP2;P2;SDS_P1;SDS_P2;PMS_P1;PMS_P2;Temp;Humidity;BMP_temperature;BMP_pressure;BME280_temperature;BME280_humidity;BME280_pressure;Samples;Min_cycle;Max_cycle;Signal;HPM_P1;HPM_P2
2021/10/26 00:00:23;;;;;;;10.30;5.57;;;;;;;;;;5032895;28;20049;-80
2021/10/26 00:02:49;;;;;;;10.48;6.13;;;;;;;;;;5036466;28;20097;-80
2021/10/26 00:05:15;;;;;;;9.35;4.85;;;;;;;;;;5037229;28;20041;-81
2021/10/26 00:07:42;;;;;;;10.93;5.40;;;;;;;;;;5030761;28;20532;-80
2021/10/26 00:10:12;;;;;;;7.47;4.85;;;;;;;;;;5036227;28;20128;-80
2021/10/26 00:12:40;;;;;;;8.23;4.55;;;;;;;;;;5027592;28;20095;-81
2021/10/26 00:15:07;;;;;;;9.20;5.03;;;;;;;;;;5032201;28;20047;-80
2021/10/26 00:17:33;;;;;;;8.80;5.72;;;;;;;;;;5036324;28;20478;-80
2021/10/26 00:20:00;;;;;;;9.65;5.40;;;;;;;;;;5036099;28;20057;-81
2021/10/26 00:22:26;;;;;;;7.78;4.75;;;;;;;;;;5035831;28;20049;-80
2021/10/26 00:24:53;;;;;;;10.43;5.55;;;;;;;;;;5034284;28;20053;-80
2021/10/26 00:27:19;;;;;;;10.68;5.97;;;;;;;;;;5035971;28;20378;-80
2021/10/26 00:29:48;;;;;;;10.85;5.03;;;;;;;;;;5035931;28;20504;-80
2021/10/26 00:32:15;;;;;;;9.23;5.13;;;;;;;;;;5036378;28;20049;-80
2021/10/26 00:34:41;;;;;;;9.88;5.05;;;;;;;;;;5035652;28;20049;-80
2021/10/26 00:37:08;;;;;;;8.38;5.10;;;;;;;;;;5035991;28;20053;-81
2021/10/26 00:39:35;;;;;;;10.23;5.03;;;;;;;;;;5022195;28;20550;-80
2021/10/26 00:42:02;;;;;;;9.80;5.45;;;;;;;;;;5034428;28;20041;-81
2021/10/26 00:44:29;;;;;;;9.02;4.90;;;;;;;;;;5036415;28;20124;-80
2021/10/26 00:46:57;;;;;;;9.88;5.15;;;;;;;;;;5036069;28;20049;-80
2021/10/26 00:49:23;;;;;;;8.20;4.93;;;;;;;;;;5035883;28;20072;-80
2021/10/26 00:51:51;;;;;;;9.50;4.80;;;;;;;;;;5037357;28;20046;-80
2021/10/26 00:54:18;;;;;;;10.55;5.53;;;;;;;;;;5039223;28;20136;-80
2021/10/26 00:56:45;;;;;;;8.50;6.07;;;;;;;;;;5038663;28;20049;-80
2021/10/26 00:59:11;;;;;;;8.93;5.00;;;;;;;;;;5039449;28;20052;-80
2021/10/26 01:01:38;;;;;;;9.18;5.10;;;;;;;;;;5039039;28;20053;-80
2021/10/26 01:04:06;;;;;;;10.50;6.07;;;;;;;;;;5039095;28;20240;-80
2021/10/26 01:06:32;;;;;;;12.43;6.50;;;;;;;;;;5039074;28;20389;-80
2021/10/26 01:08:59;;;;;;;10.93;5.13;;;;;;;;;;5038996;28;20049;-80
2021/10/26 01:11:25;;;;;;;9.90;5.82;;;;;;;;;;5032627;28;20049;-80
2021/10/26 01:13:52;;;;;;;8.25;4.82;;;;;;;;;;5038220;28;20489;-80
2021/10/26 01:16:18;;;;;;;9.15;5.32;;;;;;;;;;5039021;28;20045;-80
2021/10/26 01:18:45;;;;;;;9.20;5.18;;;;;;;;;;5020775;28;20433;-80
2021/10/26 01:21:13;;;;;;;8.45;5.05;;;;;;;;;;5038719;28;20041;-80
2021/10/26 01:23:39;;;;;;;9.55;5.15;;;;;;;;;;5037792;28;20041;-80
2021/10/26 01:26:06;;;;;;;12.60;6.00;;;;;;;;;;5037892;28;20050;-80
2021/10/26 01:28:32;;;;;;;10.00;6.53;;;;;;;;;;5038092;28;20045;-80
2021/10/26 01:30:59;;;;;;;12.88;6.65;;;;;;;;;;5036657;28;20045;-80
2021/10/26 01:33:26;;;;;;;8.50;4.97;;;;;;;;;;5037171;28;20042;-80
2021/10/26 01:35:53;;;;;;;9.95;5.28;;;;;;;;;;5037716;28;20724;-80
2021/10/26 01:38:22;;;;;;;9.27;5.00;;;;;;;;;;5019459;28;20421;-80
2021/10/26 01:40:49;;;;;;;14.38;5.72;;;;;;;;;;5037879;28;20490;-80
2021/10/26 01:43:15;;;;;;;11.40;5.82;;;;;;;;;;5037321;28;20046;-80
2021/10/26 01:45:42;;;;;;;10.45;5.68;;;;;;;;;;5037756;28;20386;-79
2021/10/26 01:48:08;;;;;;;9.70;6.07;;;;;;;;;;5037279;28;20413;-80
2021/10/26 01:50:35;;;;;;;9.25;5.78;;;;;;;;;;5038106;28;20042;-80
2021/10/26 01:53:02;;;;;;;9.10;5.07;;;;;;;;;;5037688;28;20046;-80
2021/10/26 01:55:29;;;;;;;10.85;5.78;;;;;;;;;;5037360;28;20068;-80
2021/10/26 01:57:56;;;;;;;8.82;4.90;;;;;;;;;;5036963;28;20054;-80
2021/10/26 02:00:23;;;;;;;9.32;5.38;;;;;;;;;;5036864;28;20061;-80
2021/10/26 02:02:50;;;;;;;9.57;5.70;;;;;;;;;;5036833;28;20405;-80
2021/10/26 02:05:17;;;;;;;8.90;5.00;;;;;;;;;;5036778;28;20050;-80
2021/10/26 02:07:45;;;;;;;10.73;5.72;;;;;;;;;;5019415;28;20041;-80
2021/10/26 02:10:12;;;;;;;8.85;5.32;;;;;;;;;;5036823;28;20046;-80
2021/10/26 02:12:40;;;;;;;10.52;5.65;;;;;;;;;;5037247;28;20041;-80
2021/10/26 02:15:07;;;;;;;9.82;5.53;;;;;;;;;;5029123;28;20050;-80
2021/10/26 02:17:34;;;;;;;9.50;5.38;;;;;;;;;;5037017;28;20050;-80
2021/10/26 02:20:01;;;;;;;12.02;5.85;;;;;;;;;;5036243;28;20145;-80
2021/10/26 02:22:27;;;;;;;11.38;5.68;;;;;;;;;;5036621;28;20494;-80
2021/10/26 02:24:54;;;;;;;10.63;5.82;;;;;;;;;;5036688;28;20045;-80
2021/10/26 02:27:20;;;;;;;9.07;5.47;;;;;;;;;;5036268;28;20088;-80
2021/10/26 02:29:48;;;;;;;8.45;4.70;;;;;;;;;;5037204;28;20041;-80
2021/10/26 02:32:14;;;;;;;17.15;7.70;;;;;;;;;;5036186;28;20049;-80
2021/10/26 02:34:41;;;;;;;8.63;5.10;;;;;;;;;;5036377;28;20498;-80
2021/10/26 02:37:07;;;;;;;8.50;4.97;;;;;;;;;;5036013;28;20557;-80
2021/10/26 02:39:34;;;;;;;8.85;5.15;;;;;;;;;;5036681;28;20508;-80
2021/10/26 02:42:00;;;;;;;10.15;5.43;;;;;;;;;;5036836;28;20045;-80
2021/10/26 02:44:27;;;;;;;9.25;4.85;;;;;;;;;;5036398;28;20045;-80
2021/10/26 02:46:55;;;;;;;9.40;5.30;;;;;;;;;;5036601;28;20128;-80
2021/10/26 02:49:21;;;;;;;9.30;5.63;;;;;;;;;;5037151;28;20049;-80
2021/10/26 02:51:48;;;;;;;9.02;5.20;;;;;;;;;;5036484;28;20072;-80
2021/10/26 02:54:14;;;;;;;9.75;5.15;;;;;;;;;;5032864;28;20064;-80
2021/10/26 02:56:42;;;;;;;8.38;4.60;;;;;;;;;;5029619;28;20049;-80
2021/10/26 02:59:08;;;;;;;9.27;4.80;;;;;;;;;;5036556;28;20041;-80
2021/10/26 03:01:35;;;;;;;10.60;5.63;;;;;;;;;;5018678;28;20516;-81
2021/10/26 03:04:03;;;;;;;12.23;5.15;;;;;;;;;;5036101;28;20050;-81
2021/10/26 03:06:30;;;;;;;8.90;5.35;;;;;;;;;;5025067;28;20064;-81
2021/10/26 03:08:56;;;;;;;8.27;5.05;;;;;;;;;;5035918;28;20053;-80
2021/10/26 03:11:22;;;;;;;11.32;6.55;;;;;;;;;;5035581;28;20045;-80
2021/10/26 03:13:49;;;;;;;9.13;5.05;;;;;;;;;;5023643;28;20038;-80
2021/10/26 03:16:15;;;;;;;9.35;5.25;;;;;;;;;;5035906;28;20060;-80
2021/10/26 03:18:42;;;;;;;8.20;4.68;;;;;;;;;;5036138;28;20049;-80
2021/10/26 03:21:09;;;;;;;10.00;4.93;;;;;;;;;;5035505;28;20124;-81
2021/10/26 03:23:36;;;;;;;8.80;4.80;;;;;;;;;;5040472;28;20049;-80
2021/10/26 03:26:02;;;;;;;10.73;5.63;;;;;;;;;;5035762;28;20057;-81
2021/10/26 03:28:29;;;;;;;8.93;5.20;;;;;;;;;;5036141;28;20045;-81
2021/10/26 03:30:57;;;;;;;10.60;5.22;;;;;;;;;;5036217;28;20449;-80
2021/10/26 03:33:23;;;;;;;10.80;6.05;;;;;;;;;;5036021;28;20042;-80
2021/10/26 03:35:51;;;;;;;11.50;5.68;;;;;;;;;;5035702;28;20056;-81
2021/10/26 03:38:19;;;;;;;10.70;5.32;;;;;;;;;;5036494;28;20042;-81
2021/10/26 03:40:45;;;;;;;9.80;4.80;;;;;;;;;;5037055;28;20053;-80
2021/10/26 03:43:12;;;;;;;9.25;4.60;;;;;;;;;;5036106;28;20045;-80
2021/10/26 03:45:38;;;;;;;10.73;5.88;;;;;;;;;;5035640;28;20046;-81
2021/10/26 03:48:05;;;;;;;11.50;6.20;;;;;;;;;;5018841;28;20141;-81
2021/10/26 03:50:32;;;;;;;9.55;5.32;;;;;;;;;;5032323;28;20053;-80
2021/10/26 03:52:58;;;;;;;10.65;5.38;;;;;;;;;;5035233;28;20397;-80
2021/10/26 03:55:26;;;;;;;11.45;5.50;;;;;;;;;;5035543;28;20060;-80
2021/10/26 03:57:53;;;;;;;9.20;4.78;;;;;;;;;;5029612;28;20052;-80
2021/10/26 04:00:19;;;;;;;7.60;4.68;;;;;;;;;;5035358;28;20045;-81
2021/10/26 04:02:48;;;;;;;8.73;4.45;;;;;;;;;;5016088;28;20049;-80
2021/10/26 04:05:20;;;;;;;8.50;4.55;;;;;;;;;;5034366;28;20472;-80
2021/10/26 04:07:52;;;;;;;8.93;4.75;;;;;;;;;;5033612;28;20104;-81
2021/10/26 04:10:28;;;;;;;8.50;4.32;;;;;;;;;;5034377;28;20552;-80
2021/10/26 04:12:57;;;;;;;11.77;6.20;;;;;;;;;;5035561;28;20068;-80
2021/10/26 04:15:23;;;;;;;9.65;5.47;;;;;;;;;;5035814;28;20133;-80
2021/10/26 04:17:50;;;;;;;9.90;4.90;;;;;;;;;;5035875;28;20046;-81
2021/10/26 04:20:16;;;;;;;9.95;5.53;;;;;;;;;;5035681;28;20053;-80
2021/10/26 04:22:43;;;;;;;11.27;5.00;;;;;;;;;;5035584;28;20046;-80
2021/10/26 04:25:09;;;;;;;9.98;5.15;;;;;;;;;;5035106;28;20056;-80
2021/10/26 04:27:36;;;;;;;10.50;5.50;;;;;;;;;;5034602;28;20677;-80
2021/10/26 04:30:04;;;;;;;10.52;4.97;;;;;;;;;;5035136;28;20498;-80
2021/10/26 04:32:31;;;;;;;9.60;4.20;;;;;;;;;;5034967;28;20041;-80
2021/10/26 04:34:58;;;;;;;9.18;5.15;;;;;;;;;;5034350;28;20076;-80
2021/10/26 04:37:25;;;;;;;9.63;5.45;;;;;;;;;;5039920;28;20042;-80
2021/10/26 04:39:51;;;;;;;8.68;4.82;;;;;;;;;;5036332;28;20049;-80
2021/10/26 04:42:18;;;;;;;11.07;5.93;;;;;;;;;;5035159;28;20056;-80
2021/10/26 04:44:45;;;;;;;9.07;4.65;;;;;;;;;;5034597;28;20092;-80
2021/10/26 04:47:13;;;;;;;8.25;4.75;;;;;;;;;;5034677;28;20045;-80
2021/10/26 04:49:39;;;;;;;9.68;4.95;;;;;;;;;;5030489;28;20045;-80
2021/10/26 04:52:06;;;;;;;8.18;5.10;;;;;;;;;;5033803;28;20041;-80
2021/10/26 04:54:32;;;;;;;10.68;5.43;;;;;;;;;;5029801;28;20441;-79
2021/10/26 04:56:58;;;;;;;11.60;5.28;;;;;;;;;;5034122;28;20053;-80
2021/10/26 04:59:25;;;;;;;9.48;4.90;;;;;;;;;;5034421;28;20053;-81
2021/10/26 05:01:51;;;;;;;12.40;6.63;;;;;;;;;;5035362;28;20053;-81
2021/10/26 05:04:19;;;;;;;14.85;6.97;;;;;;;;;;5034942;28;20049;-81
2021/10/26 05:06:46;;;;;;;10.07;6.93;;;;;;;;;;5035585;28;20045;-82
2021/10/26 05:09:12;;;;;;;13.02;6.75;;;;;;;;;;5017364;28;20048;-81
2021/10/26 05:11:39;;;;;;;10.93;6.10;;;;;;;;;;5034573;28;20041;-82
2021/10/26 05:14:05;;;;;;;10.18;5.75;;;;;;;;;;5035426;28;20072;-81
2021/10/26 05:16:33;;;;;;;11.50;6.53;;;;;;;;;;5035992;28;20050;-81
2021/10/26 05:19:02;;;;;;;13.35;6.57;;;;;;;;;;5035356;28;20045;-82
2021/10/26 05:21:30;;;;;;;13.35;6.30;;;;;;;;;;5035686;28;20152;-81
2021/10/26 05:23:56;;;;;;;8.00;5.18;;;;;;;;;;5035419;28;20046;-82
2021/10/26 05:26:23;;;;;;;18.50;6.70;;;;;;;;;;5034901;28;20053;-82
2021/10/26 05:28:50;;;;;;;14.07;7.10;;;;;;;;;;5016270;28;20467;-82
2021/10/26 05:31:17;;;;;;;14.25;6.78;;;;;;;;;;5035571;28;20056;-82
2021/10/26 05:33:44;;;;;;;15.63;6.75;;;;;;;;;;5034962;28;20048;-82
2021/10/26 05:36:11;;;;;;;13.82;6.53;;;;;;;;;;5034050;28;20424;-81
2021/10/26 05:38:39;;;;;;;12.48;6.85;;;;;;;;;;5037100;28;20625;-82
2021/10/26 05:41:06;;;;;;;11.80;5.78;;;;;;;;;;5037512;28;20057;-81
2021/10/26 05:43:32;;;;;;;14.77;6.60;;;;;;;;;;5037671;28;20050;-82
2021/10/26 05:45:59;;;;;;;14.45;7.00;;;;;;;;;;5038821;28;20045;-81
2021/10/26 05:48:25;;;;;;;13.27;6.35;;;;;;;;;;5039130;28;20037;-81
2021/10/26 05:50:52;;;;;;;15.23;5.88;;;;;;;;;;5038419;28;20052;-81
2021/10/26 05:53:19;;;;;;;13.13;7.50;;;;;;;;;;5039202;28;20104;-81
2021/10/26 05:55:47;;;;;;;16.55;5.93;;;;;;;;;;5038657;28;20046;-81
2021/10/26 05:58:13;;;;;;;9.70;5.75;;;;;;;;;;5039468;28;20052;-81
2021/10/26 06:00:41;;;;;;;11.10;5.50;;;;;;;;;;5038537;28;20041;-81
2021/10/26 06:03:08;;;;;;;12.48;6.10;;;;;;;;;;5025617;28;20045;-81
2021/10/26 06:05:35;;;;;;;12.77;6.45;;;;;;;;;;5038585;28;20042;-81
2021/10/26 06:08:02;;;;;;;12.77;5.63;;;;;;;;;;5037563;28;20049;-82
2021/10/26 06:10:31;;;;;;;11.35;6.32;;;;;;;;;;5020257;28;20053;-81
2021/10/26 06:13:03;;;;;;;17.60;6.38;;;;;;;;;;5038119;28;20049;-82
2021/10/26 06:15:29;;;;;;;14.70;6.05;;;;;;;;;;5038473;28;20422;-82
2021/10/26 06:17:56;;;;;;;14.25;6.22;;;;;;;;;;5034533;28;20046;-80
2021/10/26 06:20:22;;;;;;;15.13;9.50;;;;;;;;;;5038383;28;20041;-80
2021/10/26 06:22:49;;;;;;;11.60;6.53;;;;;;;;;;5043387;28;20053;-82
2021/10/26 06:25:15;;;;;;;12.73;6.18;;;;;;;;;;5038976;28;20045;-81
2021/10/26 06:27:42;;;;;;;11.38;5.80;;;;;;;;;;5037347;28;20053;-80
2021/10/26 06:30:11;;;;;;;12.65;5.82;;;;;;;;;;5025974;28;20054;-81
2021/10/26 06:32:40;;;;;;;12.18;6.10;;;;;;;;;;5017732;28;20050;-81
2021/10/26 06:35:07;;;;;;;13.68;6.20;;;;;;;;;;5018015;28;20041;-81
2021/10/26 06:37:35;;;;;;;11.95;6.25;;;;;;;;;;5034606;28;20048;-80
2021/10/26 06:40:03;;;;;;;13.48;7.32;;;;;;;;;;5037563;28;20063;-80
2021/10/26 06:42:32;;;;;;;18.65;9.20;;;;;;;;;;5037934;28;20052;-81
2021/10/26 06:44:59;;;;;;;14.68;8.88;;;;;;;;;;5037474;28;20049;-80
2021/10/26 06:47:26;;;;;;;17.45;9.23;;;;;;;;;;5036998;28;20049;-81
2021/10/26 06:49:53;;;;;;;25.38;10.48;;;;;;;;;;5035352;28;20045;-80
2021/10/26 06:52:19;;;;;;;24.40;10.18;;;;;;;;;;5036425;28;20069;-80
2021/10/26 06:54:46;;;;;;;25.80;11.18;;;;;;;;;;5037712;28;20041;-82
2021/10/26 06:57:14;;;;;;;25.88;11.20;;;;;;;;;;5037073;28;20053;-82
2021/10/26 06:59:40;;;;;;;21.92;9.32;;;;;;;;;;5037468;28;20136;-81
2021/10/26 07:02:07;;;;;;;16.90;10.23;;;;;;;;;;5037156;28;20097;-81
2021/10/26 07:04:36;;;;;;;16.77;8.82;;;;;;;;;;5036072;28;20042;-81
2021/10/26 07:07:03;;;;;;;17.70;9.38;;;;;;;;;;5035315;28;20056;-81
2021/10/26 07:09:30;;;;;;;24.73;9.70;;;;;;;;;;5035011;28;20042;-81
2021/10/26 07:11:57;;;;;;;20.33;10.07;;;;;;;;;;5036603;28;20050;-81
2021/10/26 07:14:23;;;;;;;24.42;9.55;;;;;;;;;;5035995;28;20045;-81
2021/10/26 07:16:49;;;;;;;19.23;9.65;;;;;;;;;;5036793;28;20056;-82
2021/10/26 07:19:16;;;;;;;19.25;9.93;;;;;;;;;;5037724;28;20052;-81
2021/10/26 07:21:44;;;;;;;22.70;10.32;;;;;;;;;;5023973;28;20061;-81
2021/10/26 07:24:12;;;;;;;21.23;11.18;;;;;;;;;;5033454;28;20052;-81
2021/10/26 07:26:39;;;;;;;17.08;10.05;;;;;;;;;;5037275;28;20046;-81
2021/10/26 07:29:05;;;;;;;16.98;9.95;;;;;;;;;;5038199;28;20050;-82
2021/10/26 07:31:32;;;;;;;14.55;8.82;;;;;;;;;;5036975;28;20045;-82
2021/10/26 07:34:00;;;;;;;20.70;11.10;;;;;;;;;;5036431;28;20262;-79
2021/10/26 07:36:30;;;;;;;17.00;10.07;;;;;;;;;;5036132;28;20128;-81
2021/10/26 07:39:01;;;;;;;19.02;9.93;;;;;;;;;;5025475;28;20045;-82
2021/10/26 07:41:27;;;;;;;17.52;9.18;;;;;;;;;;5037787;28;20152;-82
2021/10/26 07:43:56;;;;;;;18.13;9.30;;;;;;;;;;5043593;28;20057;-82
2021/10/26 07:46:22;;;;;;;20.52;10.60;;;;;;;;;;5036364;28;20482;-80
2021/10/26 07:48:49;;;;;;;18.70;10.10;;;;;;;;;;5035924;28;20049;-79
2021/10/26 07:51:16;;;;;;;23.00;12.30;;;;;;;;;;5034786;28;20148;-80
2021/10/26 07:53:42;;;;;;;21.45;10.93;;;;;;;;;;5035170;28;20041;-81
2021/10/26 07:56:11;;;;;;;20.80;10.25;;;;;;;;;;5035475;28;20056;-81
2021/10/26 07:58:40;;;;;;;23.90;10.95;;;;;;;;;;5025576;28;20082;-81
2021/10/26 08:01:07;;;;;;;24.33;12.23;;;;;;;;;;5035893;28;20095;-80
2021/10/26 08:03:34;;;;;;;24.67;12.85;;;;;;;;;;5035821;28;20049;-80
2021/10/26 08:06:01;;;;;;;19.80;11.88;;;;;;;;;;5035226;28;20532;-80
2021/10/26 08:08:28;;;;;;;18.52;11.48;;;;;;;;;;5035570;28;20072;-81
2021/10/26 08:10:55;;;;;;;19.63;9.60;;;;;;;;;;5036403;28;20109;-80
2021/10/26 08:13:23;;;;;;;17.52;10.20;;;;;;;;;;5034631;28;20045;-81
2021/10/26 08:15:51;;;;;;;17.05;10.10;;;;;;;;;;5036673;28;20049;-82
2021/10/26 08:18:18;;;;;;;18.20;9.57;;;;;;;;;;5035065;28;20050;-80
2021/10/26 08:20:44;;;;;;;17.65;10.30;;;;;;;;;;5036201;28;20048;-81
2021/10/26 08:23:11;;;;;;;21.48;13.77;;;;;;;;;;5034944;28;20044;-82
2021/10/26 08:25:40;;;;;;;22.95;12.95;;;;;;;;;;5035166;28;20072;-80
2021/10/26 08:28:11;;;;;;;21.08;12.75;;;;;;;;;;5035986;28;20073;-81
2021/10/26 08:30:47;;;;;;;20.30;13.52;;;;;;;;;;5034807;28;20065;-80
2021/10/26 08:33:20;;;;;;;25.55;13.70;;;;;;;;;;5034210;28;20084;-80
2021/10/26 08:35:47;;;;;;;17.73;10.88;;;;;;;;;;5035805;28;20528;-80
2021/10/26 08:38:14;;;;;;;16.40;9.23;;;;;;;;;;5036272;28;20350;-81
2021/10/26 08:40:46;;;;;;;15.35;8.88;;;;;;;;;;5036765;28;20049;-81
2021/10/26 08:43:14;;;;;;;17.13;9.38;;;;;;;;;;5036626;28;20076;-81
2021/10/26 08:45:44;;;;;;;17.60;9.90;;;;;;;;;;5035295;28;20050;-80
2021/10/26 08:48:14;;;;;;;20.23;9.73;;;;;;;;;;5036793;28;20049;-81
2021/10/26 08:50:42;;;;;;;21.13;8.82;;;;;;;;;;5032744;28;20041;-81
2021/10/26 08:53:09;;;;;;;19.77;10.38;;;;;;;;;;5036908;28;20045;-82
2021/10/26 08:55:38;;;;;;;18.02;10.43;;;;;;;;;;5036806;28;20402;-82
2021/10/26 08:58:04;;;;;;;15.65;9.45;;;;;;;;;;5036424;28;20045;-82
2021/10/26 09:00:31;;;;;;;16.13;8.98;;;;;;;;;;5035919;28;20057;-81
2021/10/26 09:03:01;;;;;;;17.88;9.82;;;;;;;;;;5036224;28;20065;-82
2021/10/26 09:05:28;;;;;;;18.63;9.57;;;;;;;;;;5037107;28;20135;-80
2021/10/26 09:08:06;;;;;;;16.00;10.05;;;;;;;;;;5035743;28;20056;-81
2021/10/26 09:10:33;;;;;;;17.95;8.95;;;;;;;;;;5035714;28;20045;-81
2021/10/26 09:18:38;;;;;;;13.48;8.65;;;;;;;;;;5034225;28;20138;-80
2021/10/26 09:21:04;;;;;;;17.80;10.40;;;;;;;;;;5034176;28;20049;-83
2021/10/26 09:23:31;;;;;;;16.60;9.32;;;;;;;;;;5032861;28;20053;-81
2021/10/26 09:25:59;;;;;;;16.85;9.50;;;;;;;;;;5040676;28;20061;-81
2021/10/26 09:28:27;;;;;;;15.75;10.05;;;;;;;;;;5038225;28;20048;-81
2021/10/26 09:31:01;;;;;;;17.95;9.70;;;;;;;;;;5040421;28;20056;-81
2021/10/26 09:33:33;;;;;;;17.55;9.80;;;;;;;;;;5039387;28;20045;-82
2021/10/26 09:36:24;;;;;;;18.98;10.30;;;;;;;;;;5040767;28;20088;-82
2021/10/26 09:38:56;;;;;;;19.20;9.35;;;;;;;;;;5035122;28;20052;-83
2021/10/26 09:41:23;;;;;;;16.20;9.70;;;;;;;;;;5037095;28;20049;-80
2021/10/26 09:43:49;;;;;;;21.60;9.88;;;;;;;;;;5020176;28;20050;-81
2021/10/26 09:46:16;;;;;;;17.17;9.32;;;;;;;;;;5036513;28;20048;-82
2021/10/26 09:48:43;;;;;;;16.40;9.30;;;;;;;;;;5039982;28;20406;-82
2021/10/26 09:51:20;;;;;;;19.33;9.00;;;;;;;;;;5040529;28;20132;-82
2021/10/26 09:53:57;;;;;;;16.40;9.15;;;;;;;;;;5045407;28;20046;-82
2021/10/26 09:56:24;;;;;;;15.82;9.18;;;;;;;;;;5028931;28;20045;-80
2021/10/26 09:59:15;;;;;;;15.18;9.30;;;;;;;;;;5028876;28;20048;-83
2021/10/26 10:01:52;;;;;;;16.38;9.07;;;;;;;;;;5017479;28;20053;-80
2021/10/26 10:04:24;;;;;;;15.80;9.30;;;;;;;;;;5017407;28;20046;-81
2021/10/26 10:06:51;;;;;;;13.90;8.50;;;;;;;;;;5036063;28;20046;-80
2021/10/26 10:09:23;;;;;;;17.02;10.18;;;;;;;;;;5035925;28;20054;-79
2021/10/26 10:11:58;;;;;;;13.90;9.10;;;;;;;;;;5035631;28;20044;-79
2021/10/26 10:14:24;;;;;;;16.58;8.00;;;;;;;;;;5036179;28;20038;-80
2021/10/26 10:16:52;;;;;;;14.43;8.98;;;;;;;;;;5038767;28;20049;-80
2021/10/26 10:19:20;;;;;;;13.25;8.40;;;;;;;;;;5037282;28;20049;-81
2021/10/26 10:21:50;;;;;;;18.95;9.13;;;;;;;;;;5014156;28;20049;-80
2021/10/26 10:24:17;;;;;;;12.75;8.60;;;;;;;;;;5034401;28;20033;-81
2021/10/26 10:26:49;;;;;;;18.27;8.98;;;;;;;;;;5035495;28;20048;-80
2021/10/26 10:29:16;;;;;;;12.60;8.15;;;;;;;;;;5038076;28;20100;-80
2021/10/26 10:31:42;;;;;;;12.68;7.80;;;;;;;;;;5029340;28;20057;-81
2021/10/26 10:34:09;;;;;;;12.32;7.55;;;;;;;;;;5029858;28;20049;-81
2021/10/26 10:36:40;;;;;;;13.82;7.88;;;;;;;;;;5036351;28;20045;-80
2021/10/26 10:39:08;;;;;;;12.68;8.23;;;;;;;;;;5035651;28;20057;-81
2021/10/26 10:41:37;;;;;;;12.27;7.82;;;;;;;;;;5036009;28;20057;-80
2021/10/26 10:44:08;;;;;;;12.15;7.93;;;;;;;;;;5036278;28;20050;-82
2021/10/26 10:46:39;;;;;;;11.07;6.38;;;;;;;;;;5037213;28;20430;-83
2021/10/26 10:49:39;;;;;;;14.60;6.35;;;;;;;;;;5036871;28;20050;-81
2021/10/26 10:52:08;;;;;;;10.68;6.03;;;;;;;;;;5027775;28;20056;-80
2021/10/26 10:54:41;;;;;;;10.05;5.97;;;;;;;;;;5034074;28;20084;-80
2021/10/26 10:57:19;;;;;;;12.73;6.43;;;;;;;;;;5035822;28;20107;-81
2021/10/26 10:59:48;;;;;;;10.07;6.47;;;;;;;;;;5038135;28;20057;-80
2021/10/26 11:02:25;;;;;;;11.13;6.43;;;;;;;;;;5037780;28;20051;-82
2021/10/26 11:04:53;;;;;;;10.40;6.68;;;;;;;;;;5040490;28;20046;-81
2021/10/26 11:07:49;;;;;;;11.05;7.10;;;;;;;;;;5037089;28;20050;-80
2021/10/26 11:10:19;;;;;;;12.77;6.65;;;;;;;;;;5037823;28;20047;-82
2021/10/26 11:12:46;;;;;;;10.43;6.55;;;;;;;;;;5019643;28;20452;-83
2021/10/26 11:15:16;;;;;;;9.18;5.63;;;;;;;;;;5038178;28;20098;-81
2021/10/26 11:17:54;;;;;;;9.75;6.10;;;;;;;;;;5037710;28;20505;-80
2021/10/26 11:20:41;;;;;;;10.10;5.75;;;;;;;;;;5024525;28;20045;-80
2021/10/26 11:23:09;;;;;;;9.27;5.30;;;;;;;;;;5037535;28;20509;-81
2021/10/26 11:25:37;;;;;;;7.93;5.32;;;;;;;;;;5037606;28;20037;-81
2021/10/26 11:28:35;;;;;;;8.27;6.00;;;;;;;;;;5038059;28;20062;-81
2021/10/26 11:31:06;;;;;;;11.20;6.65;;;;;;;;;;5019269;28;20273;-80
2021/10/26 11:33:34;;;;;;;9.68;5.70;;;;;;;;;;5036794;28;20050;-80
2021/10/26 11:36:05;;;;;;;11.25;6.40;;;;;;;;;;5036654;28;20046;-80
2021/10/26 11:38:33;;;;;;;10.68;6.03;;;;;;;;;;5036506;28;20474;-81
2021/10/26 11:41:01;;;;;;;9.75;5.60;;;;;;;;;;5037163;28;20049;-81
2021/10/26 11:43:29;;;;;;;11.07;5.57;;;;;;;;;;5024510;28;20056;-81
2021/10/26 11:45:56;;;;;;;8.45;4.75;;;;;;;;;;5036661;28;20525;-82
2021/10/26 11:48:43;;;;;;;9.25;5.05;;;;;;;;;;5038267;28;20417;-82
2021/10/26 11:51:21;;;;;;;7.90;4.95;;;;;;;;;;5037455;28;20397;-80
2021/10/26 11:53:50;;;;;;;7.50;4.97;;;;;;;;;;5032882;28;20045;-81
2021/10/26 11:56:25;;;;;;;9.05;4.63;;;;;;;;;;5037419;28;20077;-80
2021/10/26 11:58:57;;;;;;;7.75;5.03;;;;;;;;;;5036929;28;20041;-81
2021/10/26 12:01:47;;;;;;;8.50;5.10;;;;;;;;;;5018099;28;20050;-81
2021/10/26 12:04:20;;;;;;;11.32;5.85;;;;;;;;;;5030661;28;20107;-81
2021/10/26 12:06:48;;;;;;;8.27;5.40;;;;;;;;;;5037249;28;20046;-82
2021/10/26 12:09:16;;;;;;;7.78;4.65;;;;;;;;;;5036064;28;20486;-81
2021/10/26 12:11:44;;;;;;;9.65;5.00;;;;;;;;;;5036258;28;20102;-81
2021/10/26 12:14:19;;;;;;;8.35;5.18;;;;;;;;;;5037187;28;20512;-81
2021/10/26 12:17:08;;;;;;;7.85;5.05;;;;;;;;;;5035900;28;20685;-80
2021/10/26 12:19:37;;;;;;;8.50;4.95;;;;;;;;;;5033632;28;20060;-81
2021/10/26 12:22:04;;;;;;;9.07;4.55;;;;;;;;;;5036138;28;20124;-81
2021/10/26 12:24:32;;;;;;;8.48;4.78;;;;;;;;;;5022254;28;20052;-81
2021/10/26 12:27:03;;;;;;;7.20;4.53;;;;;;;;;;5030588;28;20045;-81
2021/10/26 12:29:31;;;;;;;6.85;4.50;;;;;;;;;;5036070;28;20045;-82
2021/10/26 12:31:58;;;;;;;9.27;4.50;;;;;;;;;;5037357;28;20057;-81
2021/10/26 12:34:25;;;;;;;8.40;4.45;;;;;;;;;;5036702;28;20421;-81
2021/10/26 12:36:53;;;;;;;8.57;4.20;;;;;;;;;;5033340;28;20136;-81
2021/10/26 12:39:28;;;;;;;7.82;4.32;;;;;;;;;;5036928;28;20056;-81
2021/10/26 12:41:55;;;;;;;6.53;3.65;;;;;;;;;;5018738;28;20042;-81
2021/10/26 12:44:26;;;;;;;6.43;3.83;;;;;;;;;;5017589;28;20065;-82
2021/10/26 12:47:03;;;;;;;6.85;3.92;;;;;;;;;;5033979;28;20056;-81
2021/10/26 12:49:36;;;;;;;7.05;3.90;;;;;;;;;;5042255;28;20088;-80
2021/10/26 12:52:12;;;;;;;5.88;3.33;;;;;;;;;;5041908;28;20111;-82
2021/10/26 12:54:38;;;;;;;8.88;3.20;;;;;;;;;;5040820;28;20078;-81
2021/10/26 12:57:05;;;;;;;8.10;3.80;;;;;;;;;;5021245;28;20046;-80
2021/10/26 12:59:32;;;;;;;6.43;3.70;;;;;;;;;;5032600;28;20060;-81
2021/10/26 13:02:00;;;;;;;7.53;4.88;;;;;;;;;;5039991;28;20109;-81
2021/10/26 13:04:28;;;;;;;6.25;4.25;;;;;;;;;;5039881;28;20092;-80
2021/10/26 13:06:56;;;;;;;7.85;3.95;;;;;;;;;;5040684;28;20054;-81
2021/10/26 13:09:33;;;;;;;7.35;3.97;;;;;;;;;;5039599;28;20111;-81
2021/10/26 13:12:07;;;;;;;6.82;3.72;;;;;;;;;;5020107;28;20410;-81
2021/10/26 13:14:44;;;;;;;6.15;3.70;;;;;;;;;;5019847;28;20060;-80
2021/10/26 13:17:31;;;;;;;7.32;3.92;;;;;;;;;;5029996;28;20049;-80
2021/10/26 13:20:23;;;;;;;9.68;4.00;;;;;;;;;;5026575;28;20093;-80
2021/10/26 13:22:59;;;;;;;5.90;4.20;;;;;;;;;;5039197;28;20045;-80
2021/10/26 13:25:30;;;;;;;7.40;4.45;;;;;;;;;;5037848;28;20046;-81
2021/10/26 13:27:56;;;;;;;7.47;3.70;;;;;;;;;;5035962;28;20056;-80
2021/10/26 13:30:24;;;;;;;7.95;4.88;;;;;;;;;;5039715;28;20056;-81
2021/10/26 13:32:51;;;;;;;7.80;4.10;;;;;;;;;;5039906;28;20052;-80
2021/10/26 13:35:18;;;;;;;6.65;4.38;;;;;;;;;;5039920;28;20045;-81
2021/10/26 13:37:44;;;;;;;5.70;3.78;;;;;;;;;;5037840;28;20049;-80
2021/10/26 13:40:11;;;;;;;5.85;3.45;;;;;;;;;;5037001;28;20505;-80
2021/10/26 13:42:38;;;;;;;6.35;3.67;;;;;;;;;;5035536;28;20045;-80
2021/10/26 13:45:06;;;;;;;6.07;3.10;;;;;;;;;;5035589;28;20044;-82
2021/10/26 13:47:35;;;;;;;6.38;3.63;;;;;;;;;;5015918;28;20045;-81
2021/10/26 13:50:02;;;;;;;6.70;3.10;;;;;;;;;;5030553;28;20043;-81
2021/10/26 13:52:29;;;;;;;5.97;3.25;;;;;;;;;;5036524;28;20045;-80
2021/10/26 13:54:55;;;;;;;7.57;3.97;;;;;;;;;;5037483;28;20046;-80
2021/10/26 13:57:22;;;;;;;6.32;3.90;;;;;;;;;;5038461;28;20421;-80
2021/10/26 13:59:50;;;;;;;5.80;4.13;;;;;;;;;;5030904;28;20049;-81
2021/10/26 14:02:16;;;;;;;5.80;3.63;;;;;;;;;;5029207;28;20060;-81
2021/10/26 14:04:43;;;;;;;10.85;4.00;;;;;;;;;;5019025;28;20363;-80
2021/10/26 14:07:10;;;;;;;6.85;4.22;;;;;;;;;;5026213;28;20041;-81
2021/10/26 14:09:36;;;;;;;8.43;4.20;;;;;;;;;;5038220;28;20095;-81
2021/10/26 14:12:03;;;;;;;11.85;4.30;;;;;;;;;;5037950;28;20049;-80
2021/10/26 14:14:30;;;;;;;16.08;4.25;;;;;;;;;;5039040;28;20049;-81
2021/10/26 14:16:58;;;;;;;10.63;3.50;;;;;;;;;;5039088;28;20111;-81
2021/10/26 14:19:24;;;;;;;12.90;4.30;;;;;;;;;;5038833;28;20497;-81
2021/10/26 14:21:51;;;;;;;5.95;2.95;;;;;;;;;;5039616;28;20045;-81
2021/10/26 14:24:20;;;;;;;6.57;3.22;;;;;;;;;;5039154;28;20068;-81
2021/10/26 14:26:46;;;;;;;7.97;3.60;;;;;;;;;;5039529;28;20044;-81
2021/10/26 14:29:13;;;;;;;6.97;4.15;;;;;;;;;;5038723;28;20056;-81
2021/10/26 14:31:40;;;;;;;7.80;3.85;;;;;;;;;;5038554;28;20056;-82
2021/10/26 14:34:07;;;;;;;7.32;4.00;;;;;;;;;;5038574;28;20045;-81
2021/10/26 14:36:50;;;;;;;8.32;3.88;;;;;;;;;;5037890;28;20045;-82
2021/10/26 14:39:23;;;;;;;7.18;3.47;;;;;;;;;;5038676;28;20056;-81
2021/10/26 14:42:13;;;;;;;9.20;3.83;;;;;;;;;;5037139;28;20504;-81
2021/10/26 14:53:11;;;;;;;8.27;5.40;;;;;;;;;;5037567;28;20064;-81
2021/10/26 14:58:22;;;;;;;6.72;4.28;;;;;;;;;;5025122;28;20052;-81